createdAt,value
2018-11-23T00:00:44.070Z,5.77
2018-11-23T00:03:18.150Z,5.67
2018-11-23T00:05:52.401Z,6.03
2018-11-23T00:08:26.943Z,6.47
2018-11-23T00:11:00.668Z,9.53
2018-11-23T00:13:34.980Z,9.77
2018-11-23T00:16:09.165Z,12.33
2018-11-23T00:18:44.112Z,11.83
2018-11-23T00:21:18.277Z,14.47
2018-11-23T00:23:54.280Z,12.00
2018-11-23T00:26:28.075Z,13.53
2018-11-23T00:29:32.761Z,11.77
2018-11-23T00:32:06.579Z,13.27
2018-11-23T00:34:40.499Z,12.20
2018-11-23T00:37:14.624Z,12.30
2018-11-23T00:39:48.409Z,12.30
2018-11-23T00:42:22.480Z,11.63
2018-11-23T00:44:56.498Z,11.27
2018-11-23T00:47:30.535Z,12.03
2018-11-23T00:50:05.104Z,12.90
2018-11-23T00:52:39.128Z,12.13
2018-11-23T00:55:14.380Z,10.47
2018-11-23T00:57:49.147Z,11.10
2018-11-23T01:00:28.758Z,10.80
2018-11-23T01:03:03.803Z,8.90
2018-11-23T01:05:37.953Z,9.30
2018-11-23T01:08:25.992Z,8.07
2018-11-23T01:11:00.747Z,10.27
2018-11-23T01:13:34.979Z,7.87
2018-11-23T01:16:09.053Z,7.60
2018-11-23T01:18:42.928Z,9.27
2018-11-23T01:21:18.392Z,8.97
2018-11-23T01:23:52.559Z,8.87
2018-11-23T01:26:27.823Z,11.13
2018-11-23T01:29:01.599Z,11.50
2018-11-23T01:31:35.816Z,10.40
2018-11-23T01:34:11.045Z,10.67
2018-11-23T01:36:45.243Z,10.37
2018-11-23T01:39:19.368Z,9.50
2018-11-23T01:41:53.500Z,9.07
2018-11-23T01:44:27.547Z,10.00
2018-11-23T01:47:10.954Z,10.07
2018-11-23T01:49:44.907Z,9.50
2018-11-23T01:52:18.843Z,9.37
2018-11-23T01:54:52.928Z,8.57
2018-11-23T01:57:26.987Z,10.53
2018-11-23T02:00:31.878Z,10.00
2018-11-23T02:03:05.927Z,10.73
2018-11-23T02:05:40.676Z,10.70
2018-11-23T02:08:14.591Z,9.87
2018-11-23T02:10:48.686Z,8.57
2018-11-23T02:13:22.662Z,7.70
2018-11-23T02:15:56.755Z,10.50
2018-11-23T02:18:31.277Z,9.70
2018-11-23T02:21:05.020Z,7.90
2018-11-23T02:23:39.005Z,8.00
2018-11-23T02:26:13.279Z,9.00
2018-11-23T02:28:49.014Z,8.13
2018-11-23T02:31:28.060Z,7.40
2018-11-23T02:34:01.734Z,8.80
2018-11-23T02:36:40.201Z,6.30
2018-11-23T02:39:17.934Z,8.20
2018-11-23T02:41:54.921Z,6.87
2018-11-23T02:44:35.838Z,9.87
2018-11-23T02:47:14.658Z,9.18
2018-11-23T02:49:53.975Z,9.53
2018-11-23T02:52:32.781Z,11.53
2018-11-23T02:55:10.635Z,9.88
2018-11-23T02:57:52.896Z,11.40
2018-11-23T03:00:38.210Z,8.70
2018-11-23T03:03:18.462Z,9.13
2018-11-23T03:06:01.762Z,9.63
2018-11-23T03:08:39.021Z,9.90
2018-11-23T03:11:19.736Z,9.43
2018-11-23T03:13:58.441Z,10.93
2018-11-23T03:16:32.060Z,10.63
2018-11-23T03:19:06.627Z,9.73
2018-11-23T03:21:40.784Z,9.98
2018-11-23T03:24:15.241Z,8.27
2018-11-23T03:26:48.909Z,7.27
2018-11-23T03:29:23.302Z,8.68
2018-11-23T03:31:58.675Z,7.37
2018-11-23T03:34:33.693Z,6.67
2018-11-23T03:37:08.295Z,7.33
2018-11-23T03:39:42.150Z,6.80
2018-11-23T03:42:16.217Z,8.13
2018-11-23T03:44:49.849Z,6.30
2018-11-23T03:47:24.140Z,7.70
2018-11-23T03:49:58.193Z,6.30
2018-11-23T03:52:32.494Z,6.70
2018-11-23T03:55:06.282Z,7.55
2018-11-23T03:57:45.302Z,6.40
2018-11-23T04:00:24.328Z,5.95
2018-11-23T04:02:58.031Z,5.27
2018-11-23T04:05:32.644Z,4.70
2018-11-23T04:08:07.048Z,6.42
2018-11-23T04:10:40.742Z,5.30
2018-11-23T04:13:14.901Z,6.60
2018-11-23T04:15:49.067Z,4.63
2018-11-23T04:18:23.577Z,4.70
2018-11-23T04:21:02.711Z,5.25
2018-11-23T04:23:37.129Z,5.90
2018-11-23T04:26:11.425Z,5.03
2018-11-23T04:28:46.024Z,4.33
2018-11-23T04:31:19.794Z,4.90
2018-11-23T04:33:55.533Z,5.23
2018-11-23T04:36:29.754Z,5.25
2018-11-23T04:39:03.951Z,5.33
2018-11-23T04:41:38.152Z,5.50
2018-11-23T04:44:12.350Z,4.58
2018-11-23T04:46:46.720Z,5.17
2018-11-23T04:49:20.524Z,5.70
2018-11-23T04:51:54.985Z,5.10
2018-11-23T04:54:29.046Z,5.47
2018-11-23T04:57:03.523Z,5.20
2018-11-23T04:59:37.465Z,5.67
2018-11-23T05:02:11.432Z,4.20
2018-11-23T05:04:45.908Z,4.70
2018-11-23T05:07:19.846Z,4.30
2018-11-23T05:09:54.221Z,4.28
2018-11-23T05:12:28.299Z,4.80
2018-11-23T05:15:03.470Z,4.80
2018-11-23T05:17:37.643Z,4.10
2018-11-23T05:20:12.715Z,3.92
2018-11-23T05:22:46.720Z,3.67
2018-11-23T05:25:21.838Z,3.65
2018-11-23T05:28:00.427Z,5.43
2018-11-23T05:30:35.192Z,5.12
2018-11-23T05:33:09.317Z,4.35
2018-11-23T05:35:43.798Z,5.00
2018-11-23T05:38:18.711Z,4.12
2018-11-23T05:40:56.112Z,4.97
2018-11-23T05:43:31.246Z,4.70
2018-11-23T05:46:05.211Z,4.92
2018-11-23T05:48:39.288Z,5.00
2018-11-23T05:51:13.762Z,4.10
2018-11-23T05:53:47.781Z,4.00
2018-11-23T05:56:21.755Z,4.53
2018-11-23T05:58:56.501Z,4.50
2018-11-23T06:01:30.456Z,4.83
2018-11-23T06:04:04.706Z,4.80
2018-11-23T06:06:42.472Z,4.20
2018-11-23T06:09:13.506Z,4.17
2018-11-23T06:11:47.733Z,4.40
2018-11-23T06:14:21.486Z,4.35
2018-11-23T06:16:55.781Z,4.20
2018-11-23T06:19:29.777Z,3.67
2018-11-23T06:22:05.157Z,4.22
2018-11-23T06:24:45.463Z,4.47
2018-11-23T06:27:19.932Z,4.25
2018-11-23T06:29:53.652Z,4.50
2018-11-23T06:32:36.578Z,5.28
2018-11-23T06:35:10.668Z,4.40
2018-11-23T06:37:45.581Z,4.20
2018-11-23T06:40:19.957Z,4.37
2018-11-23T06:42:54.084Z,4.50
2018-11-23T06:45:27.904Z,4.20
2018-11-23T06:48:01.492Z,4.10
2018-11-23T06:50:35.311Z,4.45
2018-11-23T06:53:10.117Z,4.58
2018-11-23T06:55:44.237Z,4.40
2018-11-23T06:58:18.593Z,5.22
2018-11-23T07:00:52.339Z,4.63
2018-11-23T07:03:26.508Z,3.97
2018-11-23T07:06:01.358Z,4.20
2018-11-23T07:08:35.437Z,4.15
2018-11-23T07:11:09.525Z,4.10
2018-11-23T07:13:43.594Z,3.57
2018-11-23T07:16:17.898Z,4.47
2018-11-23T07:18:52.276Z,3.65
2018-11-23T07:24:17.941Z,4.10
2018-11-23T07:26:52.079Z,3.60
2018-11-23T07:29:25.987Z,3.80
2018-11-23T07:31:59.934Z,3.50
2018-11-23T07:34:33.803Z,3.12
2018-11-23T07:37:07.566Z,3.47
2018-11-23T07:39:52.321Z,3.70
2018-11-23T07:42:27.883Z,3.52
2018-11-23T07:45:01.725Z,3.63
2018-11-23T07:47:35.710Z,3.40
2018-11-23T07:50:10.969Z,3.40
2018-11-23T07:52:45.033Z,3.65
2018-11-23T07:55:18.957Z,3.75
2018-11-23T07:57:53.065Z,3.30
2018-11-23T08:00:28.056Z,4.55
2018-11-23T08:03:02.271Z,3.10
2018-11-23T08:05:36.069Z,3.25
2018-11-23T08:08:10.655Z,3.60
2018-11-23T08:10:42.955Z,4.17
2018-11-23T08:13:19.206Z,3.00
2018-11-23T08:15:53.151Z,3.25
2018-11-23T08:18:26.843Z,3.90
2018-11-23T08:21:00.529Z,3.03
2018-11-23T08:23:37.422Z,2.85
2018-11-23T08:26:42.158Z,3.33
2018-11-23T08:29:46.786Z,3.30
2018-11-23T08:32:20.960Z,3.85
2018-11-23T08:34:55.044Z,3.52
2018-11-23T08:37:29.384Z,3.10
2018-11-23T08:40:03.566Z,3.40
2018-11-23T08:42:37.920Z,3.75
2018-11-23T08:45:14.826Z,3.30
2018-11-23T08:47:49.039Z,3.40
2018-11-23T08:50:32.670Z,3.30
2018-11-23T08:53:06.296Z,3.27
2018-11-23T08:55:39.837Z,3.07
2018-11-23T08:58:13.955Z,3.50
2018-11-23T09:00:48.185Z,3.20
2018-11-23T09:03:22.626Z,3.20
2018-11-23T09:05:59.133Z,3.30
2018-11-23T09:08:35.517Z,3.17
2018-11-23T09:11:09.990Z,3.43
2018-11-23T09:13:44.403Z,3.17
2018-11-23T09:16:19.294Z,3.33
2018-11-23T09:18:54.767Z,3.00
2018-11-23T09:21:28.528Z,3.67
2018-11-23T09:24:02.295Z,3.20
2018-11-23T09:26:36.449Z,3.23
2018-11-23T09:29:10.475Z,3.47
2018-11-23T09:31:45.269Z,3.30
2018-11-23T09:34:19.452Z,3.25
2018-11-23T09:36:53.954Z,2.83
2018-11-23T09:39:27.628Z,3.37
2018-11-23T09:42:01.455Z,3.45
2018-11-23T09:44:35.872Z,3.60
2018-11-23T09:47:10.169Z,3.23
2018-11-23T09:49:44.378Z,2.83
2018-11-23T09:52:18.341Z,3.20
2018-11-23T09:54:52.087Z,3.27
2018-11-23T09:57:26.196Z,3.20
2018-11-23T09:59:59.771Z,3.53
2018-11-23T10:02:34.964Z,3.20
2018-11-23T10:05:10.023Z,3.30
2018-11-23T10:07:44.542Z,4.20
2018-11-23T10:10:25.268Z,4.20
2018-11-23T10:13:02.823Z,3.47
2018-11-23T10:15:37.355Z,3.90
2018-11-23T10:18:10.905Z,4.20
2018-11-23T10:20:45.043Z,4.50
2018-11-23T10:23:19.209Z,4.63
2018-11-23T10:25:52.970Z,4.20
2018-11-23T10:28:27.019Z,4.20
2018-11-23T10:31:00.994Z,4.60
2018-11-23T10:33:34.843Z,4.47
2018-11-23T10:36:09.746Z,4.00
2018-11-23T10:38:43.922Z,4.95
2018-11-23T10:41:30.876Z,4.63
2018-11-23T10:44:04.519Z,5.20
2018-11-23T10:49:13.817Z,4.87
2018-11-23T10:51:47.754Z,4.43
2018-11-23T10:54:22.623Z,4.07
2018-11-23T10:56:56.657Z,4.57
2018-11-23T10:59:30.821Z,4.70
2018-11-23T11:02:04.974Z,4.67
2018-11-23T11:04:44.648Z,4.97
2018-11-23T11:07:28.978Z,4.83
2018-11-23T11:10:02.876Z,5.57
2018-11-23T11:12:40.278Z,4.83
2018-11-23T11:15:18.109Z,5.10
2018-11-23T11:18:03.494Z,5.40
2018-11-23T11:20:39.283Z,5.27
2018-11-23T11:23:13.568Z,5.30
2018-11-23T11:25:47.689Z,5.50
2018-11-23T11:28:21.614Z,5.40
2018-11-23T11:30:56.704Z,5.67
2018-11-23T11:33:29.895Z,5.70
2018-11-23T11:36:04.240Z,5.90
2018-11-23T11:38:38.026Z,6.97
2018-11-23T11:41:13.024Z,6.73
2018-11-23T11:43:46.760Z,6.73
2018-11-23T11:46:23.019Z,6.90
2018-11-23T11:48:57.938Z,8.00
2018-11-23T11:51:31.788Z,7.00
2018-11-23T11:54:06.782Z,8.73
2018-11-23T11:56:40.902Z,10.97
2018-11-23T11:59:14.974Z,10.60
2018-11-23T12:01:48.963Z,12.33
2018-11-23T12:04:23.197Z,10.73
2018-11-23T12:06:58.730Z,9.00
2018-11-23T12:09:32.913Z,8.30
2018-11-23T12:12:06.787Z,8.03
2018-11-23T12:14:41.347Z,7.60
2018-11-23T12:17:15.337Z,6.63
2018-11-23T12:19:49.373Z,6.53
2018-11-23T12:22:23.093Z,6.27
2018-11-23T12:24:57.452Z,6.57
2018-11-23T12:27:31.424Z,6.37
2018-11-23T12:30:05.406Z,6.10
2018-11-23T12:32:39.426Z,6.17
2018-11-23T12:35:14.597Z,7.43
2018-11-23T12:37:48.271Z,6.37
2018-11-23T12:40:24.061Z,6.77
2018-11-23T12:42:58.068Z,7.37
2018-11-23T12:45:31.884Z,6.63
2018-11-23T12:48:06.016Z,7.40
2018-11-23T12:50:40.993Z,6.73
2018-11-23T12:53:15.072Z,7.27
2018-11-23T12:55:48.899Z,6.63
2018-11-23T12:58:23.616Z,7.83
2018-11-23T13:00:57.396Z,6.63
2018-11-23T13:03:31.422Z,8.17
2018-11-23T13:06:05.124Z,7.00
2018-11-23T13:08:39.592Z,6.83
2018-11-23T13:11:12.098Z,7.83
2018-11-23T13:13:46.500Z,6.90
2018-11-23T13:16:21.050Z,7.90
2018-11-23T13:18:55.382Z,7.30
2018-11-23T13:21:29.528Z,7.27
2018-11-23T13:24:04.169Z,8.53
2018-11-23T13:26:38.251Z,7.30
2018-11-23T13:29:16.161Z,8.73
2018-11-23T13:31:47.006Z,8.20
2018-11-23T13:34:22.717Z,7.50
2018-11-23T13:36:56.965Z,7.73
2018-11-23T13:39:31.210Z,8.47
2018-11-23T13:42:05.418Z,7.93
2018-11-23T13:44:39.902Z,7.33
2018-11-23T13:47:13.920Z,6.30
2018-11-23T13:49:47.938Z,7.50
2018-11-23T13:52:22.545Z,6.97
2018-11-23T13:54:57.405Z,7.73
2018-11-23T13:57:31.366Z,7.53
2018-11-23T14:00:06.071Z,8.00
2018-11-23T14:02:40.015Z,8.93
2018-11-23T14:05:16.509Z,9.13
2018-11-23T14:07:52.916Z,8.87
2018-11-23T14:10:27.810Z,8.88
2018-11-23T14:13:02.339Z,8.07
2018-11-23T14:15:37.576Z,8.80
2018-11-23T14:18:16.414Z,11.33
2018-11-23T14:21:21.230Z,10.57
2018-11-23T14:23:55.241Z,9.40
2018-11-23T14:26:29.739Z,10.07
2018-11-23T14:29:03.473Z,9.97
2018-11-23T14:31:37.776Z,9.50
2018-11-23T14:34:11.550Z,9.90
2018-11-23T14:36:45.453Z,9.87
2018-11-23T14:39:19.390Z,8.53
2018-11-23T14:41:53.431Z,9.43
2018-11-23T14:44:28.436Z,7.27
2018-11-23T14:47:02.245Z,8.90
2018-11-23T14:49:36.224Z,9.47
2018-11-23T14:52:09.560Z,9.80
2018-11-23T14:54:44.860Z,8.47
2018-11-23T14:57:18.743Z,8.90
2018-11-23T14:59:52.812Z,8.08
2018-11-23T15:02:26.833Z,8.07
2018-11-23T15:05:00.257Z,7.80
2018-11-23T15:07:34.418Z,7.30
2018-11-23T15:10:09.655Z,8.60
2018-11-23T15:12:43.511Z,7.37
2018-11-23T15:15:23.095Z,8.83
2018-11-23T15:17:57.402Z,8.00
2018-11-23T15:20:35.813Z,7.73
2018-11-23T15:23:13.220Z,7.70
2018-11-23T15:25:47.324Z,7.10
2018-11-23T15:28:20.980Z,8.03
2018-11-23T15:30:54.594Z,8.10
2018-11-23T15:33:28.517Z,8.27
2018-11-23T15:36:02.560Z,7.10
2018-11-23T15:38:36.580Z,8.70
2018-11-23T15:41:11.651Z,9.00
2018-11-23T15:43:45.397Z,8.73
2018-11-23T15:46:19.312Z,7.17
2018-11-23T15:48:53.369Z,8.87
2018-11-23T15:51:27.269Z,7.43
2018-11-23T15:54:01.221Z,7.00
2018-11-23T15:56:36.799Z,7.90
2018-11-23T15:59:10.942Z,8.77
2018-11-23T16:01:44.658Z,8.70
2018-11-23T16:04:19.071Z,8.67
2018-11-23T16:06:52.796Z,7.67
2018-11-23T16:09:26.787Z,8.07
2018-11-23T16:12:00.646Z,8.67
2018-11-23T16:14:34.647Z,9.17
2018-11-23T16:17:08.668Z,8.20
2018-11-23T16:19:42.598Z,8.27
2018-11-23T16:22:16.556Z,8.27
2018-11-23T16:24:50.557Z,8.53
2018-11-23T16:27:24.744Z,8.63
2018-11-23T16:29:58.360Z,8.23
2018-11-23T16:32:32.319Z,7.43
2018-11-23T16:35:05.871Z,8.87
2018-11-23T16:37:40.688Z,8.37
2018-11-23T16:40:16.550Z,8.47
2018-11-23T16:42:50.261Z,8.60
2018-11-23T16:45:26.527Z,8.53
2018-11-23T16:48:01.147Z,8.77
2018-11-23T16:50:40.846Z,8.50
2018-11-23T16:53:14.830Z,9.88
2018-11-23T16:55:49.743Z,8.40
2018-11-23T16:58:39.879Z,8.18
2018-11-23T17:01:19.637Z,7.83
2018-11-23T17:04:12.122Z,7.70
2018-11-23T17:06:45.875Z,9.10
2018-11-23T17:09:19.821Z,8.73
2018-11-23T17:11:57.758Z,9.03
2018-11-23T17:14:31.609Z,8.23
2018-11-23T17:17:05.566Z,10.37
2018-11-23T17:19:39.874Z,9.57
2018-11-23T17:22:14.920Z,7.93
2018-11-23T17:24:48.861Z,9.33
2018-11-23T17:27:23.351Z,8.37
2018-11-23T17:29:58.194Z,8.25
2018-11-23T17:32:32.298Z,8.67
2018-11-23T17:35:06.466Z,8.40
2018-11-23T17:37:41.520Z,8.73
2018-11-23T17:40:17.187Z,7.57
2018-11-23T17:42:51.354Z,7.27
2018-11-23T17:45:27.409Z,7.47
2018-11-23T17:48:00.983Z,8.40
2018-11-23T17:50:36.134Z,6.57
2018-11-23T17:53:10.711Z,7.47
2018-11-23T17:55:44.652Z,7.50
2018-11-23T17:58:18.640Z,6.40
2018-11-23T18:00:53.483Z,7.27
2018-11-23T18:03:27.706Z,5.80
2018-11-23T18:06:03.809Z,6.20
2018-11-23T18:08:39.068Z,7.63
2018-11-23T18:11:11.362Z,6.97
2018-11-23T18:13:45.438Z,7.20
2018-11-23T18:16:19.506Z,6.77
2018-11-23T18:18:53.289Z,7.10
2018-11-23T18:21:26.962Z,7.00
2018-11-23T18:24:01.522Z,6.53
2018-11-23T18:26:35.630Z,6.23
2018-11-23T18:29:09.668Z,6.43
2018-11-23T18:31:43.791Z,7.03
2018-11-23T18:34:17.700Z,6.27
2018-11-23T18:36:51.794Z,7.10
2018-11-23T18:39:25.724Z,6.33
2018-11-23T18:42:00.154Z,6.73
2018-11-23T18:44:34.136Z,7.23
2018-11-23T18:47:07.715Z,7.30
2018-11-23T18:49:41.783Z,7.77
2018-11-23T18:52:15.491Z,8.17
2018-11-23T18:54:49.513Z,8.50
2018-11-23T18:57:23.705Z,6.63
2018-11-23T18:59:57.439Z,7.97
2018-11-23T19:02:33.646Z,8.03
2018-11-23T19:05:07.678Z,8.37
2018-11-23T19:07:50.568Z,8.13
2018-11-23T19:10:24.665Z,8.53
2018-11-23T19:12:58.536Z,8.07
2018-11-23T19:15:32.184Z,7.30
2018-11-23T19:18:05.792Z,7.93
2018-11-23T19:20:40.159Z,7.97
2018-11-23T19:23:14.029Z,7.70
2018-11-23T19:25:48.529Z,8.53
2018-11-23T19:28:22.795Z,9.60
2018-11-23T19:30:56.406Z,9.50
2018-11-23T19:33:30.477Z,8.80
2018-11-23T19:36:04.286Z,8.97
2018-11-23T19:38:38.389Z,8.70
2018-11-23T19:41:12.354Z,10.00
2018-11-23T19:43:46.234Z,9.13
2018-11-23T19:46:20.343Z,8.97
2018-11-23T19:48:54.336Z,10.03
2018-11-23T19:51:27.953Z,9.13
2018-11-23T19:54:01.755Z,8.80
2018-11-23T19:56:35.307Z,9.53
2018-11-23T19:59:09.426Z,8.03
2018-11-23T20:01:43.140Z,9.35
2018-11-23T20:04:18.524Z,9.43
2018-11-23T20:06:52.718Z,9.17
2018-11-23T20:09:27.571Z,8.73
2018-11-23T20:12:00.983Z,8.13
2018-11-23T20:14:34.774Z,10.17
2018-11-23T20:17:10.091Z,9.43
2018-11-23T20:19:43.923Z,10.03
2018-11-23T20:22:18.048Z,10.10
2018-11-23T20:24:51.957Z,9.33
2018-11-23T20:27:26.729Z,9.97
2018-11-23T20:30:00.607Z,9.37
2018-11-23T20:32:34.607Z,9.60
2018-11-23T20:35:09.036Z,11.83
2018-11-23T20:37:43.115Z,9.23
2018-11-23T20:40:22.567Z,10.13
2018-11-23T20:42:56.887Z,9.73
2018-11-23T20:45:32.362Z,9.33
2018-11-23T20:48:06.753Z,8.80
2018-11-23T20:50:40.970Z,10.10
2018-11-23T20:53:15.060Z,9.67
2018-11-23T20:55:49.204Z,10.07
2018-11-23T20:58:23.731Z,9.33
2018-11-23T21:00:57.752Z,9.07
2018-11-23T21:03:31.884Z,9.90
2018-11-23T21:06:07.303Z,8.50
2018-11-23T21:08:41.413Z,10.17
2018-11-23T21:11:15.140Z,8.73
2018-11-23T21:13:49.093Z,8.83
2018-11-23T21:16:23.331Z,9.97
2018-11-23T21:18:56.875Z,9.27
2018-11-23T21:21:30.909Z,11.63
2018-11-23T21:24:05.002Z,10.20
2018-11-23T21:26:39.953Z,10.00
2018-11-23T21:29:15.047Z,10.50
2018-11-23T21:31:49.027Z,9.63
2018-11-23T21:34:22.611Z,10.60
2018-11-23T21:36:56.888Z,11.03
2018-11-23T21:39:31.164Z,11.07
2018-11-23T21:42:05.305Z,10.65
2018-11-23T21:44:39.687Z,11.20
2018-11-23T21:47:16.606Z,10.63
2018-11-23T21:49:51.157Z,9.57
2018-11-23T21:52:25.261Z,9.50
2018-11-23T21:55:06.272Z,10.37
2018-11-23T21:57:42.539Z,9.48
2018-11-23T22:00:20.364Z,8.87
2018-11-23T22:02:56.003Z,9.10
2018-11-23T22:05:29.820Z,8.63
2018-11-23T22:08:06.146Z,8.28
2018-11-23T22:10:40.617Z,8.90
2018-11-23T22:13:14.893Z,10.30
2018-11-23T22:15:49.648Z,9.27
2018-11-23T22:18:24.297Z,11.50
2018-11-23T22:20:59.277Z,9.53
2018-11-23T22:23:33.210Z,10.40
2018-11-23T22:26:07.242Z,9.90
2018-11-23T22:28:41.385Z,10.05
2018-11-23T22:31:15.901Z,9.53
2018-11-23T22:33:58.070Z,10.10
2018-11-23T22:36:35.672Z,11.77
2018-11-23T22:39:12.356Z,10.67
2018-11-23T22:41:46.261Z,10.00
2018-11-23T22:44:20.241Z,7.97
2018-11-23T22:46:54.430Z,7.70
2018-11-23T22:49:29.201Z,8.87
2018-11-23T22:52:02.982Z,8.53
2018-11-23T22:54:38.261Z,10.00
2018-11-23T22:57:15.820Z,10.23
2018-11-23T22:59:49.632Z,10.37
2018-11-23T23:02:27.789Z,9.50
2018-11-23T23:05:02.159Z,12.70
2018-11-23T23:07:36.529Z,13.70
2018-11-23T23:10:11.463Z,13.10
2018-11-23T23:12:45.623Z,10.73
2018-11-23T23:15:19.193Z,11.33
2018-11-23T23:17:53.573Z,11.13
2018-11-23T23:20:28.077Z,10.70
2018-11-23T23:23:02.342Z,9.60
2018-11-23T23:25:36.027Z,10.97
2018-11-23T23:28:10.052Z,10.13
2018-11-23T23:30:44.005Z,9.93
2018-11-23T23:33:18.272Z,10.30
2018-11-23T23:35:52.326Z,10.90
2018-11-23T23:38:27.024Z,9.87
2018-11-23T23:41:00.663Z,10.80
2018-11-23T23:43:34.939Z,10.77
2018-11-23T23:46:09.005Z,11.10
2018-11-23T23:48:42.876Z,9.80
2018-11-23T23:51:16.552Z,9.93
2018-11-23T23:53:50.313Z,9.73
2018-11-23T23:56:24.139Z,9.17
2018-11-23T23:58:57.681Z,9.03
